Check out our new PWSWeather beta!
PWSweather.com
Personal Weather Stations
Station Observations
IPOITOUC11
Poitou Charentes, MareuilFR 16170

Poitou CharentesMareuilFR 16170

Lat: 45.761952, Lon: -0.15817

Elevation: 143.2

Station Type: WMR300 Oregon scientific

http://jarnacmeteo.cabanova.com

High Low Average
Temperature 55.2°F12.9°F 41.0°F5.0°F 48.5°F9.2°F
Dew Point 53.3°F11.8°F 39.9°F4.4°F 46.4°F8.0°F
Winds 17.3 mph -27.8 mph - Calm Calm 9.5 mph 15.3 mph
Wind Gusts 28.8 mph46.3 mph -- 14.4 mph23.2 mph
Humidity 97% 79% 92%
Pressure 30.14 in1020.70 in 29.69 in1005.40 in -
Precipitation 0.86 in21.80 in - -
Hour Temp Dew Point Humidity Winds Wind Gusts Pressure Precip Precip Rate Daily Precip Total
12:00 AM 43.5°F6.4°C 41.4°F5.2°C 92% 5.8 mph S9.3 kmh S 6.9 mph11.1 kmh 30.05 in1017.6 mb - 0.00 in0.0 mm 0.00 in0.0 mm
12:30 AM 43.9°F6.6°C 41.7°F5.4°C 92% 6.9 mph S11.1 kmh S 10.4 mph16.7 kmh 30.03 in1016.9 mb - 0.00 in0.0 mm 0.00 in0.0 mm
01:00 AM 44.1°F6.7°C 42.2°F5.7°C 93% 6.9 mph S11.1 kmh S 9.2 mph14.8 kmh 30.02 in1016.6 mb - 0.00 in0.0 mm 0.00 in0.0 mm
01:30 AM 43.9°F6.6°C 42.0°F5.6°C 93% 4.6 mph S7.4 kmh S 8.1 mph13.0 kmh 30.00 in1015.9 mb - 0.00 in0.0 mm 0.00 in0.0 mm
02:00 AM 43.9°F6.6°C 42.5°F5.8°C 95% 6.9 mph SSE11.1 kmh SSE 11.5 mph18.5 kmh 29.98 in1015.2 mb - 0.01 in0.3 mm 0.01 in0.3 mm
02:30 AM 43.9°F6.6°C 42.5°F5.8°C 95% 4.6 mph ESE7.4 kmh ESE 9.2 mph14.8 kmh 29.96 in1014.6 mb - 0.01 in0.3 mm 0.01 in0.3 mm
03:00 AM 43.9°F6.6°C 42.8°F6.0°C 96% 6.9 mph S11.1 kmh S 10.4 mph16.7 kmh 29.94 in1013.9 mb - 0.01 in0.3 mm 0.02 in0.5 mm
03:30 AM 43.9°F6.6°C 42.8°F6.0°C 96% 8.1 mph S13.0 kmh S 15.0 mph24.1 kmh 29.91 in1012.9 mb - 0.03 in0.8 mm 0.04 in1.0 mm
04:00 AM 44.1°F6.7°C 43.3°F6.3°C 97% 9.2 mph S14.8 kmh S 16.1 mph25.9 kmh 29.88 in1011.9 mb - 0.03 in0.8 mm 0.06 in1.5 mm
04:30 AM 44.4°F6.9°C 43.6°F6.4°C 97% 9.2 mph SSE14.8 kmh SSE 16.1 mph25.9 kmh 29.86 in1011.2 mb - 0.04 in1.0 mm 0.08 in2.0 mm
05:00 AM 44.6°F7.0°C 43.8°F6.6°C 97% 10.4 mph SSE16.7 kmh SSE 21.9 mph35.2 kmh 29.82 in1009.8 mb - 0.06 in1.5 mm 0.12 in3.0 mm
05:30 AM 45.0°F7.2°C 44.2°F6.8°C 97% 11.5 mph SSE18.5 kmh SSE 16.1 mph25.9 kmh 29.79 in1008.8 mb - 0.06 in1.5 mm 0.14 in3.6 mm
06:00 AM 45.7°F7.6°C 44.9°F7.2°C 97% 11.5 mph S18.5 kmh S 17.3 mph27.8 kmh 29.77 in1008.1 mb - 0.04 in1.0 mm 0.16 in4.1 mm
06:30 AM 46.4°F8.0°C 45.6°F7.6°C 97% 16.1 mph S25.9 kmh S 25.3 mph40.7 kmh 29.75 in1007.5 mb - 0.04 in1.0 mm 0.18 in4.6 mm
07:00 AM 46.9°F8.3°C 46.1°F7.8°C 97% 16.1 mph S25.9 kmh S 28.8 mph46.3 kmh 29.73 in1006.8 mb - 0.03 in0.8 mm 0.19 in4.8 mm
07:30 AM 47.5°F8.6°C 46.7°F8.2°C 97% 16.1 mph S25.9 kmh S 24.2 mph38.9 kmh 29.71 in1006.1 mb - 0.02 in0.5 mm 0.20 in5.1 mm
08:00 AM 48.6°F9.2°C 47.8°F8.8°C 97% 17.3 mph SSW27.8 kmh SSW 19.6 mph31.5 kmh 29.70 in1005.8 mb - 0.06 in1.5 mm 0.24 in6.1 mm
08:30 AM 50.7°F10.4°C 49.9°F9.9°C 97% 12.7 mph SSW20.4 kmh SSW 16.1 mph25.9 kmh 29.69 in1005.4 mb - 0.07 in1.8 mm 0.27 in6.9 mm
09:00 AM 52.1°F11.2°C 51.3°F10.7°C 97% 12.7 mph WSW20.4 kmh WSW 17.3 mph27.8 kmh 29.70 in1005.8 mb - 0.04 in1.0 mm 0.28 in7.1 mm
09:30 AM 52.5°F11.4°C 51.7°F10.9°C 97% 12.7 mph WSW20.4 kmh WSW 19.6 mph31.5 kmh 29.71 in1006.1 mb - 0.02 in0.5 mm 0.28 in7.1 mm
10:00 AM 52.7°F11.5°C 51.9°F11.1°C 97% 12.7 mph WSW20.4 kmh WSW 25.3 mph40.7 kmh 29.71 in1006.1 mb - 0.02 in0.5 mm 0.31 in7.9 mm
10:30 AM 53.1°F11.7°C 52.2°F11.2°C 97% 13.8 mph WSW22.2 kmh WSW 18.4 mph29.6 kmh 29.71 in1006.1 mb - 0.03 in0.8 mm 0.31 in7.9 mm
11:00 AM 53.4°F11.9°C 52.6°F11.4°C 97% 13.8 mph WSW22.2 kmh WSW 27.6 mph44.4 kmh 29.72 in1006.4 mb - 0.02 in0.5 mm 0.33 in8.4 mm
11:30 AM 53.6°F12.0°C 52.8°F11.6°C 97% 13.8 mph WSW22.2 kmh WSW 19.6 mph31.5 kmh 29.72 in1006.4 mb - 0.03 in0.8 mm 0.35 in8.9 mm
12:30 PM 53.4°F11.9°C 52.6°F11.4°C 97% 11.5 mph W18.5 kmh W 13.8 mph22.2 kmh 29.74 in1007.1 mb - 0.08 in2.0 mm 0.42 in10.7 mm
01:00 PM 54.1°F12.3°C 52.7°F11.5°C 95% 12.7 mph W20.4 kmh W 16.1 mph25.9 kmh 29.75 in1007.5 mb - 0.08 in2.0 mm 0.44 in11.2 mm
01:30 PM 54.9°F12.7°C 52.6°F11.4°C 92% 13.8 mph WSW22.2 kmh WSW 23.0 mph37.0 kmh 29.75 in1007.5 mb - 0.01 in0.3 mm 0.44 in11.2 mm
02:00 PM 54.7°F12.6°C 53.3°F11.8°C 95% 12.7 mph W20.4 kmh W 17.3 mph27.8 kmh 29.77 in1008.1 mb - 0.01 in0.3 mm 0.45 in11.4 mm
02:30 PM 55.2°F12.9°C 51.7°F10.9°C 88% 17.3 mph W27.8 kmh W 20.7 mph33.3 kmh 29.78 in1008.5 mb - 0.01 in0.3 mm 0.45 in11.4 mm
03:00 PM 55.1°F12.8°C 50.0°F10.0°C 83% 13.8 mph W22.2 kmh W 21.9 mph35.2 kmh 29.80 in1009.1 mb - 0.00 in0.0 mm 0.45 in11.4 mm
03:30 PM 54.0°F12.2°C 48.9°F9.4°C 83% 13.8 mph W22.2 kmh W 23.0 mph37.0 kmh 29.84 in1010.5 mb - 0.00 in0.0 mm 0.45 in11.4 mm
04:00 PM 54.1°F12.3°C 48.8°F9.3°C 82% 12.7 mph W20.4 kmh W 17.3 mph27.8 kmh 29.86 in1011.2 mb - 0.00 in0.0 mm 0.45 in11.4 mm
04:30 PM 53.2°F11.8°C 47.2°F8.4°C 80% 11.5 mph W18.5 kmh W 12.7 mph20.4 kmh 29.88 in1011.9 mb - 0.00 in0.0 mm 0.45 in11.4 mm
05:00 PM 53.0°F11.7°C 47.7°F8.7°C 82% 10.4 mph WNW16.7 kmh WNW 15.0 mph24.1 kmh 29.91 in1012.9 mb - 0.00 in0.0 mm 0.45 in11.4 mm
05:30 PM 53.8°F12.1°C 47.4°F8.6°C 79% 10.4 mph WNW16.7 kmh WNW 17.3 mph27.8 kmh 29.92 in1013.2 mb - 0.00 in0.0 mm 0.45 in11.4 mm
06:30 PM 51.6°F10.9°C 46.3°F7.9°C 82% 9.2 mph W14.8 kmh W 11.5 mph18.5 kmh 29.97 in1014.9 mb - 0.00 in0.0 mm 0.45 in11.4 mm
07:00 PM 50.0°F10.0°C 45.3°F7.4°C 84% 6.9 mph W11.1 kmh W 8.1 mph13.0 kmh 30.00 in1015.9 mb - 0.00 in0.0 mm 0.45 in11.4 mm
07:30 PM 48.7°F9.3°C 45.0°F7.2°C 87% 4.6 mph W7.4 kmh W 10.4 mph16.7 kmh 30.03 in1016.9 mb - 0.00 in0.0 mm 0.45 in11.4 mm
08:00 PM 47.8°F8.8°C 44.5°F6.9°C 88% 4.6 mph WNW7.4 kmh WNW 5.8 mph9.3 kmh 30.05 in1017.6 mb - 0.00 in0.0 mm 0.45 in11.4 mm
08:30 PM 46.8°F8.2°C 43.7°F6.5°C 89% 4.6 mph NW7.4 kmh NW 4.6 mph7.4 kmh 30.07 in1018.3 mb - 0.00 in0.0 mm 0.45 in11.4 mm
09:00 PM 45.1°F7.3°C 42.7°F5.9°C 91% 3.5 mph NW5.6 kmh NW 4.6 mph7.4 kmh 30.09 in1019.0 mb - 0.00 in0.0 mm 0.45 in11.4 mm
09:30 PM 44.2°F6.8°C 42.3°F5.7°C 93% 3.5 mph N5.6 kmh N 4.6 mph7.4 kmh 30.10 in1019.3 mb - 0.00 in0.0 mm 0.45 in11.4 mm
10:00 PM 43.5°F6.4°C 41.6°F5.3°C 93% Calm Calm -- 30.11 in1019.6 mb - 0.00 in0.0 mm 0.45 in11.4 mm
10:30 PM 43.0°F6.1°C 41.6°F5.3°C 95% Calm Calm 4.6 mph7.4 kmh 30.13 in1020.3 mb - 0.00 in0.0 mm 0.45 in11.4 mm
11:00 PM 42.1°F5.6°C 40.2°F4.6°C 93% Calm Calm -- 30.14 in1020.7 mb - 0.00 in0.0 mm 0.45 in11.4 mm
11:30 PM 41.0°F5.0°C 39.9°F4.4°C 96% Calm Calm 2.3 mph3.7 kmh 30.14 in1020.7 mb - 0.00 in0.0 mm 0.45 in11.4 mm